Time;durP1;ratioP1;P1;durP2;ratioP2;P2;SDS_P1;SDS_P2;PMS_P1;PMS_P2;Temp;Humidity;BMP_temperature;BMP_pressure;BME280_temperature;BME280_humidity;BME280_pressure;Samples;Min_cycle;Max_cycle;Signal;HPM_P1;HPM_P2
2022/06/13 00:00:15;;;;;;;15.70;3.30;;;;;;;24.78;56.03;101100.34;5953768;24;20781;-88
2022/06/13 00:03:50;;;;;;;31.33;4.20;;;;;;;24.69;56.46;101090.81;5904671;24;20429;-88
2022/06/13 00:11:01;;;;;;;27.93;4.03;;;;;;;24.57;57.54;101091.09;5844072;24;20418;-88
2022/06/13 00:17:37;;;;;;;18.70;3.27;;;;;;;24.44;58.86;101072.06;5750007;24;20497;-88
2022/06/13 00:21:01;;;;;;;16.47;3.00;;;;;;;24.63;60.07;101109.53;5728571;24;20875;-88
2022/06/13 00:27:50;;;;;;;14.60;3.80;;;;;;;24.57;60.92;101110.69;5673219;25;20407;-88
2022/06/13 00:34:54;;;;;;;;;;;;;;;;;;;;;
2022/06/13 00:38:38;;;;;;;27.33;4.13;;;;;;;24.76;61.56;101124.94;5763823;24;20409;-88
2022/06/13 00:41:45;;;;;;;30.20;5.17;;;;;;;24.78;61.61;101129.16;5817302;24;20486;-87
2022/06/13 00:49:00;;;;;;;24.23;4.10;;;;;;;24.91;62.61;101126.91;5868869;24;20396;-88
2022/06/13 00:52:06;;;;;;;21.83;4.43;;;;;;;24.98;62.99;101127.50;5894064;24;20430;-87
2022/06/13 00:56:27;;;;;;;23.33;3.90;;;;;;;24.90;62.93;101103.69;5889766;24;20983;-88
2022/06/13 01:30:03;;;;;;;24.23;4.90;;;;;;;24.81;66.68;101119.38;6102400;23;20392;-88
2022/06/13 03:16:03;;;;;;;;;;;;;;;;;;;;;
2022/06/13 03:23:18;;;;;;;;;;;;;;;;;;;;;
2022/06/13 03:38:51;;;;;;;27.90;6.20;;;;;;;23.84;81.25;101068.03;5741070;24;20410;-88
2022/06/13 03:46:42;;;;;;;29.90;6.80;;;;;;;23.80;81.81;101055.72;5817930;24;20457;-88
2022/06/13 04:05:36;;;;;;;;;;;;;;;;;;;;;
2022/06/13 05:53:53;;;;;;;44.93;8.40;;;;;;;23.32;95.17;101021.44;5914945;24;20473;-86
2022/06/13 06:46:28;;;;;;;37.37;6.80;;;;;;;23.93;92.53;101085.06;5982435;24;20397;-90
2022/06/13 06:49:03;;;;;;;48.50;8.50;;;;;;;24.02;91.98;101097.41;5936749;24;20402;-91
2022/06/13 06:51:33;;;;;;;29.60;7.33;;;;;;;24.09;91.75;101109.13;5958863;24;20502;-86
2022/06/13 07:02:23;;;;;;;34.57;9.00;;;;;;;24.32;90.71;101102.25;5962114;24;20958;-89
2022/06/13 07:04:53;;;;;;;43.40;8.37;;;;;;;24.39;90.50;101098.09;6150625;23;20411;-87
2022/06/13 07:07:22;;;;;;;38.23;8.60;;;;;;;24.46;90.36;101103.38;6112628;23;20396;-88
2022/06/13 07:09:51;;;;;;;40.60;9.10;;;;;;;24.58;91.09;101109.56;6185379;23;20458;-88
2022/06/13 07:12:19;;;;;;;38.57;8.67;;;;;;;24.59;91.46;101111.25;6136745;23;20404;-88
2022/06/13 07:14:46;;;;;;;38.83;8.97;;;;;;;24.61;91.62;101106.22;6186880;23;20894;-87
2022/06/13 07:17:16;;;;;;;34.00;8.43;;;;;;;24.65;91.58;101104.50;6114571;23;20405;-89
2022/06/13 07:19:44;;;;;;;40.30;9.40;;;;;;;24.73;91.39;101120.75;6113083;23;20403;-87
2022/06/13 07:22:17;;;;;;;40.00;9.00;;;;;;;24.81;91.01;101112.94;6136772;23;20953;-87
2022/06/13 07:24:45;;;;;;;38.90;9.27;;;;;;;24.86;90.63;101116.53;6137028;23;20400;-87
2022/06/13 07:27:14;;;;;;;42.63;8.40;;;;;;;24.87;90.23;101106.19;6112579;23;20487;-87
2022/06/13 07:44:53;;;;;;;29.33;7.53;;;;;;;25.21;88.52;101140.88;6216142;23;20418;-91
2022/06/13 07:48:15;;;;;;;40.90;8.37;;;;;;;25.32;88.29;101145.38;6143298;23;20485;-90
2022/06/13 07:50:48;;;;;;;33.70;6.93;;;;;;;25.30;88.11;101136.41;6193919;23;20415;-89
2022/06/13 07:56:56;;;;;;;26.83;7.60;;;;;;;25.48;87.85;101157.34;6232710;23;20419;-89
2022/06/13 07:59:33;;;;;;;30.83;6.80;;;;;;;25.38;88.19;101149.84;6168366;23;20406;-90
2022/06/13 08:02:05;;;;;;;39.70;8.97;;;;;;;25.36;88.60;101157.69;6157291;23;20443;-89
2022/06/13 08:04:34;;;;;;;39.53;8.57;;;;;;;25.19;89.21;101139.50;6178558;23;20402;-89
2022/06/13 08:07:22;;;;;;;42.33;8.23;;;;;;;25.22;89.71;101142.56;6179783;23;20396;-90
2022/06/13 08:09:50;;;;;;;33.20;7.47;;;;;;;25.23;90.29;101157.38;6144624;23;20406;-90
2022/06/13 08:12:24;;;;;;;36.90;7.90;;;;;;;25.27;90.67;101164.94;6168568;23;20399;-90
2022/06/13 08:14:51;;;;;;;39.03;8.23;;;;;;;25.30;91.49;101175.59;6165562;23;20461;-89
2022/06/13 08:25:49;;;;;;;30.53;7.03;;;;;;;25.47;90.94;101178.91;6216695;23;20445;-88
2022/06/13 08:28:17;;;;;;;37.63;7.73;;;;;;;25.46;90.85;101146.44;6216346;23;20472;-89
2022/06/13 08:30:52;;;;;;;45.20;8.50;;;;;;;25.57;90.60;101143.63;6167548;23;20415;-91
2022/06/13 08:33:26;;;;;;;33.43;8.07;;;;;;;25.87;90.08;101167.94;6144247;23;20410;-92
2022/06/13 08:35:54;;;;;;;30.87;6.53;;;;;;;25.99;89.42;101172.06;6142876;23;20464;-91
2022/06/13 08:38:23;;;;;;;21.13;6.13;;;;;;;26.07;88.42;101156.63;6165644;23;20412;-88
2022/06/13 08:41:39;;;;;;;32.67;6.80;;;;;;;26.25;87.63;101155.16;6189475;23;20438;-93
2022/06/13 08:44:25;;;;;;;27.40;6.40;;;;;;;26.44;87.55;101161.78;6176650;23;20511;-86
2022/06/13 08:47:02;;;;;;;22.20;6.23;;;;;;;26.57;86.84;101155.53;6190225;23;20395;-87
2022/06/13 08:49:42;;;;;;;28.60;6.90;;;;;;;26.67;85.33;101155.47;6189995;23;20427;-87
2022/06/13 08:52:26;;;;;;;29.30;6.57;;;;;;;26.71;84.63;101162.19;6165425;23;20403;-87
2022/06/13 08:55:23;;;;;;;36.53;7.57;;;;;;;26.68;85.04;101159.97;6164494;23;20407;-87
2022/06/13 08:58:01;;;;;;;25.73;7.40;;;;;;;26.65;84.81;101157.72;6166725;23;20406;-88
2022/06/13 09:00:30;;;;;;;32.33;7.67;;;;;;;26.63;85.06;101159.16;6166504;23;20423;-88
2022/06/13 09:03:22;;;;;;;19.80;6.23;;;;;;;26.62;85.42;101158.31;6214735;23;20920;-88
2022/06/13 09:05:55;;;;;;;28.13;7.20;;;;;;;26.55;85.02;101152.22;6168870;23;20465;-88
2022/06/13 09:09:00;;;;;;;32.37;7.13;;;;;;;26.45;85.19;101171.88;6189238;23;20399;-88
2022/06/13 09:12:17;;;;;;;33.70;7.20;;;;;;;26.35;86.03;101166.34;6185634;23;20409;-88
2022/06/13 09:14:57;;;;;;;27.10;7.40;;;;;;;26.30;86.58;101160.75;6018782;23;20408;-89
2022/06/13 09:17:43;;;;;;;29.67;7.20;;;;;;;26.35;86.63;101166.34;6042123;23;21011;-88
2022/06/13 09:20:15;;;;;;;25.40;6.90;;;;;;;26.34;86.21;101168.31;6041849;23;20492;-88
2022/06/13 09:23:00;;;;;;;25.37;7.60;;;;;;;26.38;85.72;101172.19;6018868;23;20411;-88
2022/06/13 09:26:07;;;;;;;25.77;7.47;;;;;;;26.48;85.42;101162.91;6041815;23;20438;-88
2022/06/13 09:28:44;;;;;;;19.80;6.10;;;;;;;26.64;85.29;101164.47;6047583;23;20406;-88
2022/06/13 09:31:23;;;;;;;22.20;7.00;;;;;;;26.80;85.00;101171.66;6018358;23;20403;-86
2022/06/13 09:33:54;;;;;;;23.63;6.93;;;;;;;26.92;83.45;101164.84;6041006;23;20448;-87
2022/06/13 09:37:10;;;;;;;29.37;8.60;;;;;;;27.12;83.85;101168.34;6018108;23;20986;-87
2022/06/13 09:39:39;;;;;;;34.00;8.50;;;;;;;27.34;83.03;101165.03;6013984;23;20404;-88
2022/06/13 09:42:25;;;;;;;31.53;8.70;;;;;;;27.55;81.57;101176.06;6019043;23;20458;-87
2022/06/13 09:45:07;;;;;;;27.00;7.50;;;;;;;27.62;80.96;101169.00;6042317;23;20451;-89
2022/06/13 09:47:43;;;;;;;40.50;9.37;;;;;;;27.74;80.58;101174.19;6057899;23;20735;-89
2022/06/13 10:05:56;;;;;;;28.73;7.87;;;;;;;28.41;78.24;101191.94;6220442;23;20359;-87
2022/06/13 10:08:34;;;;;;;18.60;7.80;;;;;;;28.66;77.72;101185.13;6190880;23;20404;-89
2022/06/13 10:11:57;;;;;;;27.07;7.67;;;;;;;28.97;76.44;101191.13;6193518;23;20425;-88
2022/06/13 10:14:39;;;;;;;24.80;7.77;;;;;;;29.09;74.84;101183.03;6191164;23;20415;-88
2022/06/13 10:17:16;;;;;;;18.73;7.80;;;;;;;29.22;73.98;101187.91;6194863;23;20399;-92
2022/06/13 10:19:48;;;;;;;25.90;7.20;;;;;;;29.31;73.28;101193.66;6167689;23;20469;-88
2022/06/13 10:23:02;;;;;;;23.70;8.27;;;;;;;29.30;72.78;101189.16;6190769;23;20431;-90
2022/06/13 10:25:52;;;;;;;22.57;7.00;;;;;;;29.23;72.29;101198.03;6016890;23;20435;-88
2022/06/13 10:28:57;;;;;;;33.37;7.67;;;;;;;29.16;72.83;101197.56;6042154;23;20423;-88
2022/06/13 16:26:36;;;;;;;11.43;3.37;;;;;;;34.61;45.09;100975.53;6217275;23;20765;-87
2022/06/13 16:29:04;;;;;;;18.47;4.20;;;;;;;34.58;45.79;100979.06;6167011;23;20453;-87
2022/06/13 16:31:38;;;;;;;17.80;4.27;;;;;;;34.50;45.17;100975.13;6166504;23;20924;-87
2022/06/13 16:34:06;;;;;;;14.43;4.67;;;;;;;34.48;44.80;100976.66;6165218;23;20923;-88
2022/06/13 16:36:42;;;;;;;18.67;5.70;;;;;;;34.49;45.19;100973.47;6166106;23;20737;-87
2022/06/13 16:39:38;;;;;;;25.03;6.80;;;;;;;34.44;45.39;100981.41;6168096;23;20463;-87
2022/06/13 16:42:18;;;;;;;21.87;4.40;;;;;;;34.40;45.60;100974.75;6157313;23;20465;-87
2022/06/13 16:44:47;;;;;;;16.07;4.17;;;;;;;34.32;45.34;100961.44;6189823;23;20441;-88
2022/06/13 16:47:19;;;;;;;19.63;5.87;;;;;;;34.40;46.06;100974.75;6165005;23;20434;-88
2022/06/13 16:50:12;;;;;;;16.30;5.30;;;;;;;34.28;45.46;100959.31;6190139;23;20469;-89
2022/06/13 16:52:52;;;;;;;15.27;4.80;;;;;;;34.32;45.07;100965.13;6061960;23;20406;-88
2022/06/13 16:55:53;;;;;;;19.50;4.63;;;;;;;34.26;45.54;100966.47;6048512;23;20405;-87
2022/06/13 16:58:32;;;;;;;19.80;4.00;;;;;;;34.17;46.07;100960.91;6083528;23;20396;-87
2022/06/13 17:01:02;;;;;;;9.57;3.50;;;;;;;34.02;45.63;100969.22;6076548;23;20417;-86
2022/06/13 19:42:50;;;;;;;20.63;5.33;;;;;;;26.15;78.31;100988.75;6121582;23;20425;-87
2022/06/13 19:45:19;;;;;;;22.90;6.13;;;;;;;25.98;78.56;100977.09;6165849;23;20414;-87
2022/06/13 19:47:47;;;;;;;21.57;6.13;;;;;;;25.89;79.98;100992.84;6141356;23;20402;-86
2022/06/13 19:50:21;;;;;;;25.03;5.80;;;;;;;25.70;80.52;100978.69;6168109;23;20410;-86
2022/06/13 19:53:04;;;;;;;17.40;5.80;;;;;;;25.53;81.06;100960.56;6140508;23;20447;-86
2022/06/13 19:55:54;;;;;;;18.17;5.60;;;;;;;25.59;82.23;100993.00;6172153;23;20419;-86
2022/06/13 19:58:23;;;;;;;24.50;6.50;;;;;;;25.58;82.29;100985.75;6141641;23;20946;-86
2022/06/13 20:00:57;;;;;;;19.23;5.57;;;;;;;25.53;82.02;100982.94;6167727;23;20700;-86
2022/06/13 20:03:25;;;;;;;17.17;5.70;;;;;;;25.48;82.59;100975.41;6165348;23;20434;-87
2022/06/13 20:10:52;;;;;;;23.97;6.57;;;;;;;25.44;82.83;101013.50;6123750;23;20723;-87
2022/06/13 20:14:22;;;;;;;16.00;5.90;;;;;;;25.21;83.58;100981.41;6117743;23;20941;-88
2022/06/13 20:17:37;;;;;;;26.47;5.70;;;;;;;25.33;83.05;101001.50;6037222;23;20404;-87
2022/06/13 20:20:18;;;;;;;28.33;6.83;;;;;;;25.17;83.80;100985.91;5997325;23;21014;-89
2022/06/13 20:22:47;;;;;;;24.60;6.10;;;;;;;25.10;83.94;100986.19;6082829;23;20477;-87
2022/06/13 20:25:17;;;;;;;27.53;6.77;;;;;;;25.03;85.42;100996.00;6100017;23;20406;-88
2022/06/13 20:27:53;;;;;;;19.03;6.20;;;;;;;24.93;85.60;100996.00;6077725;23;20466;-88
2022/06/13 20:30:54;;;;;;;24.53;6.40;;;;;;;24.86;85.93;100990.69;6135113;23;20422;-87
2022/06/13 20:33:44;;;;;;;25.60;7.60;;;;;;;24.77;86.60;100987.66;6135706;23;20409;-87
2022/06/13 20:39:57;;;;;;;31.67;7.90;;;;;;;24.61;86.94;100994.41;6139403;23;20378;-87
2022/06/13 20:42:29;;;;;;;21.03;6.90;;;;;;;24.55;87.53;100983.50;6092115;23;20449;-87
2022/06/13 20:45:01;;;;;;;19.33;6.40;;;;;;;24.57;87.34;100992.44;6074147;23;20418;-85
2022/06/13 20:47:31;;;;;;;30.10;7.30;;;;;;;24.53;87.40;101003.34;6053715;23;20390;-86
2022/06/13 20:50:07;;;;;;;35.13;7.30;;;;;;;24.50;87.43;100997.47;6077595;23;20462;-88
2022/06/13 20:52:35;;;;;;;25.60;7.20;;;;;;;24.42;87.18;100990.50;6053031;23;20470;-85
2022/06/13 20:55:03;;;;;;;20.00;6.83;;;;;;;24.32;88.20;100996.91;6075274;23;20443;-87
2022/06/13 20:58:01;;;;;;;24.30;6.30;;;;;;;24.37;88.42;101010.88;6071455;23;20407;-88
2022/06/13 21:00:30;;;;;;;18.67;5.97;;;;;;;24.33;88.75;101009.75;6050415;23;20405;-87
2022/06/13 21:02:58;;;;;;;27.70;6.87;;;;;;;24.31;88.87;101005.56;6025389;23;20467;-88
2022/06/13 21:05:27;;;;;;;37.90;7.73;;;;;;;24.32;88.88;101019.25;6060916;23;20396;-88
2022/06/13 21:07:55;;;;;;;26.47;6.47;;;;;;;24.24;89.00;101013.41;6112400;23;20407;-87
2022/06/13 21:10:24;;;;;;;20.70;5.70;;;;;;;24.37;88.90;101030.44;6111940;23;20455;-88
2022/06/13 21:12:57;;;;;;;24.63;7.37;;;;;;;24.35;88.67;101040.22;6112619;23;20416;-88
2022/06/13 21:15:34;;;;;;;21.63;6.73;;;;;;;24.33;89.02;101042.47;6113090;23;20434;-89
2022/06/13 21:18:01;;;;;;;39.00;7.90;;;;;;;24.18;89.38;101037.66;6137396;23;20400;-87
2022/06/13 21:20:32;;;;;;;25.33;6.87;;;;;;;24.13;89.43;101042.41;6111708;23;20407;-89
2022/06/13 21:23:00;;;;;;;31.53;8.47;;;;;;;24.14;90.11;101049.66;6135809;23;20833;-88
2022/06/13 21:25:32;;;;;;;30.40;7.30;;;;;;;24.11;90.09;101057.47;6136083;23;20499;-88
2022/06/13 21:28:00;;;;;;;21.20;7.07;;;;;;;24.09;90.52;101053.28;6135516;23;20408;-89
2022/06/13 21:30:29;;;;;;;27.87;6.93;;;;;;;23.99;90.21;101042.94;6135566;23;20408;-87
2022/06/13 21:32:58;;;;;;;38.60;8.00;;;;;;;23.96;90.90;101051.84;6112856;23;20411;-89
2022/06/13 21:35:28;;;;;;;32.70;7.27;;;;;;;23.94;91.00;101064.41;6159967;23;20397;-88
2022/06/13 21:37:56;;;;;;;28.17;7.73;;;;;;;23.95;91.30;101066.94;6186137;23;20410;-87
2022/06/13 21:40:24;;;;;;;23.97;7.23;;;;;;;23.88;91.49;101068.28;6109789;23;20478;-86
2022/06/13 21:42:54;;;;;;;35.40;8.67;;;;;;;23.81;91.96;101068.56;6137360;23;20455;-89
2022/06/13 21:45:24;;;;;;;22.10;7.43;;;;;;;23.80;92.28;101066.91;6170621;23;20406;-88
2022/06/13 21:47:51;;;;;;;29.03;8.37;;;;;;;23.72;92.28;101067.41;6173215;23;20411;-89
2022/06/13 21:50:19;;;;;;;30.07;8.37;;;;;;;23.72;92.89;101076.63;6198105;23;20427;-88
2022/06/13 21:52:47;;;;;;;27.37;7.20;;;;;;;23.71;93.19;101068.53;6151213;23;20410;-89
2022/06/13 21:55:19;;;;;;;31.87;8.50;;;;;;;23.71;92.96;101074.09;6171542;23;20411;-88
2022/06/13 21:57:51;;;;;;;25.37;7.80;;;;;;;23.69;93.05;101065.16;6167570;23;20916;-88
2022/06/13 22:00:25;;;;;;;29.40;7.33;;;;;;;23.71;93.25;101080.53;6144910;23;20438;-88
2022/06/13 22:02:56;;;;;;;25.47;8.20;;;;;;;23.62;93.41;101078.53;6144062;23;20446;-89
2022/06/13 22:05:25;;;;;;;23.50;8.37;;;;;;;23.61;94.06;101082.44;6167079;23;20403;-88
2022/06/13 22:07:56;;;;;;;23.30;7.50;;;;;;;23.62;94.15;101086.91;6167759;23;20461;-89
2022/06/13 22:10:24;;;;;;;31.13;8.17;;;;;;;23.62;93.55;101076.59;6167398;23;20418;-88
2022/06/13 22:12:51;;;;;;;25.50;8.00;;;;;;;23.60;94.08;101078.81;6142996;23;20747;-89
2022/06/13 22:15:19;;;;;;;24.63;8.10;;;;;;;23.60;93.16;101083.56;6142184;23;20406;-89
2022/06/13 22:17:46;;;;;;;27.63;8.63;;;;;;;23.53;94.03;101088.53;6166291;23;20426;-88
2022/06/13 22:20:15;;;;;;;22.33;7.40;;;;;;;23.39;94.56;101086.22;6191448;23;20399;-88
2022/06/13 22:22:44;;;;;;;27.67;8.10;;;;;;;23.33;95.46;101090.06;6142340;23;20434;-88
2022/06/13 22:25:13;;;;;;;28.50;7.80;;;;;;;23.34;96.15;101099.28;6166300;23;20478;-87
2022/06/13 22:27:42;;;;;;;27.60;8.03;;;;;;;23.29;96.07;101083.34;6190370;23;20458;-89
2022/06/13 22:30:14;;;;;;;28.37;8.13;;;;;;;23.29;96.52;101099.25;6167608;23;20404;-88
2022/06/13 22:32:43;;;;;;;23.37;7.37;;;;;;;23.28;96.50;101111.53;6143023;23;20445;-89
2022/06/13 22:35:12;;;;;;;23.17;7.73;;;;;;;23.27;96.63;101102.34;6166413;23;20724;-88
2022/06/13 22:37:42;;;;;;;24.30;8.20;;;;;;;23.35;96.06;101101.81;6194778;23;20406;-88
2022/06/13 22:40:12;;;;;;;24.83;8.87;;;;;;;23.34;95.83;101102.91;6149143;23;20418;-87
2022/06/13 22:42:40;;;;;;;27.13;8.13;;;;;;;23.28;96.47;101092.84;6171657;23;20450;-88
2022/06/13 22:45:09;;;;;;;46.73;8.67;;;;;;;23.28;96.32;101098.44;6147112;23;20431;-90
2022/06/13 22:50:40;;;;;;;24.37;9.27;;;;;;;23.23;95.68;101095.59;6199237;23;20502;-88
2022/06/13 22:53:08;;;;;;;18.50;8.17;;;;;;;23.11;96.92;101100.53;6166487;23;20395;-88
2022/06/13 22:55:36;;;;;;;32.73;8.03;;;;;;;23.06;97.48;101089.34;6142324;23;20396;-88
2022/06/13 22:58:04;;;;;;;24.60;8.07;;;;;;;23.16;96.78;101099.72;6166296;23;20461;-89
2022/06/13 23:00:36;;;;;;;29.30;8.40;;;;;;;23.13;96.85;101098.31;6191072;23;20395;-88
2022/06/13 23:03:07;;;;;;;21.60;8.90;;;;;;;23.07;97.04;101107.78;6190382;23;20465;-88
2022/06/13 23:05:36;;;;;;;26.27;7.80;;;;;;;23.07;97.31;101108.63;6166724;23;20894;-88
2022/06/13 23:08:06;;;;;;;34.60;8.50;;;;;;;23.09;96.81;101099.97;6166217;23;20921;-89
2022/06/13 23:10:35;;;;;;;29.13;7.97;;;;;;;22.96;97.07;101078.13;6166168;23;20387;-88
2022/06/13 23:13:03;;;;;;;21.73;7.83;;;;;;;23.07;96.44;101107.78;6190554;23;20403;-89
2022/06/13 23:15:31;;;;;;;22.67;7.57;;;;;;;22.90;96.79;101095.94;6141910;23;20402;-88
2022/06/13 23:17:59;;;;;;;29.90;8.93;;;;;;;22.86;97.29;101092.00;6141392;23;20403;-88
2022/06/13 23:20:28;;;;;;;25.90;7.33;;;;;;;22.78;98.07;101082.16;6191153;23;20415;-88
2022/06/13 23:22:57;;;;;;;29.97;8.27;;;;;;;22.80;98.44;101079.97;6166750;23;20494;-88
2022/06/13 23:25:26;;;;;;;21.93;7.10;;;;;;;22.80;98.87;101081.91;6191075;23;20403;-88
2022/06/13 23:28:19;;;;;;;17.00;6.80;;;;;;;22.82;98.33;101074.97;6167185;23;20402;-89
2022/06/13 23:31:06;;;;;;;18.37;6.47;;;;;;;22.80;98.57;101074.38;6093517;23;20440;-90
2022/06/13 23:33:43;;;;;;;13.67;5.73;;;;;;;22.80;98.33;101063.25;6116642;23;20931;-89
2022/06/13 23:36:14;;;;;;;17.20;5.50;;;;;;;22.86;97.55;101073.31;6146622;23;20438;-89
2022/06/13 23:38:48;;;;;;;20.17;5.93;;;;;;;22.80;97.93;101070.75;6195593;23;20842;-89
2022/06/13 23:41:16;;;;;;;28.83;7.10;;;;;;;22.79;97.95;101075.50;6170224;23;20499;-90
2022/06/13 23:43:44;;;;;;;13.83;6.03;;;;;;;22.80;97.59;101065.19;6142548;23;20451;-90
2022/06/13 23:46:12;;;;;;;28.80;5.83;;;;;;;22.74;97.55;101065.09;6141092;23;20534;-90
2022/06/13 23:48:40;;;;;;;17.00;5.83;;;;;;;22.66;97.73;101062.81;6165964;23;20764;-89
2022/06/13 23:51:08;;;;;;;16.40;5.63;;;;;;;22.66;98.18;101062.81;6141857;23;20395;-90
2022/06/13 23:53:39;;;;;;;12.93;5.77;;;;;;;22.61;98.04;101051.63;6143827;23;20420;-90
2022/06/13 23:56:07;;;;;;;15.57;6.03;;;;;;;22.65;98.13;101066.72;6166341;23;20399;-89
2022/06/13 23:58:38;;;;;;;13.17;5.27;;;;;;;22.59;98.79;101062.19;6164753;23;20737;-89
